createdAt,value
2022-08-28T00:00:25.802Z,25.86
2022-08-28T00:02:53.344Z,25.57
2022-08-28T00:05:23.086Z,25.48
2022-08-28T00:07:50.652Z,26.10
2022-08-28T00:10:20.393Z,24.60
2022-08-28T00:12:50.669Z,25.19
2022-08-28T00:15:23.965Z,25.66
2022-08-28T00:17:50.942Z,25.32
2022-08-28T00:20:20.662Z,25.43
2022-08-28T00:22:48.859Z,26.86
2022-08-28T00:25:20.081Z,25.97
2022-08-28T00:27:52.925Z,25.68
2022-08-28T00:30:22.438Z,25.80
2022-08-28T00:32:49.528Z,25.68
2022-08-28T00:35:17.864Z,26.92
2022-08-28T00:37:46.470Z,26.01
2022-08-28T00:40:18.530Z,26.06
2022-08-28T00:42:56.029Z,26.05
2022-08-28T00:45:24.612Z,24.68
2022-08-28T00:47:51.663Z,23.62
2022-08-28T00:50:22.234Z,26.32
2022-08-28T00:52:53.265Z,24.17
2022-08-28T00:55:24.142Z,25.63
2022-08-28T00:57:59.145Z,26.07
2022-08-28T01:00:35.862Z,26.39
2022-08-28T01:03:05.711Z,25.25
2022-08-28T01:05:35.050Z,26.38
2022-08-28T01:08:04.484Z,26.17
2022-08-28T01:10:34.930Z,25.70
2022-08-28T01:13:02.869Z,26.27
2022-08-28T01:15:36.016Z,25.98
2022-08-28T01:18:08.431Z,25.41
2022-08-28T01:20:45.548Z,26.45
2022-08-28T01:23:40.955Z,26.54
2022-08-28T01:26:11.783Z,26.35
2022-08-28T01:28:39.773Z,26.14
2022-08-28T01:31:10.449Z,26.50
2022-08-28T01:33:42.600Z,25.95
2022-08-28T01:36:12.121Z,25.40
2022-08-28T01:38:41.651Z,26.14
2022-08-28T01:41:08.931Z,26.13
2022-08-28T01:43:36.246Z,26.20
2022-08-28T01:46:05.946Z,25.67
2022-08-28T01:48:36.304Z,26.71
2022-08-28T01:51:04.429Z,25.76
2022-08-28T01:53:32.634Z,26.25
2022-08-28T01:56:02.353Z,25.86
2022-08-28T01:58:34.926Z,26.53
2022-08-28T02:01:16.021Z,26.17
2022-08-28T02:03:43.344Z,25.61
2022-08-28T02:06:11.418Z,25.86
2022-08-28T02:08:38.780Z,24.57
2022-08-28T02:11:07.456Z,22.45
2022-08-28T02:13:36.744Z,24.98
2022-08-28T02:16:06.310Z,24.77
2022-08-28T02:18:33.457Z,24.57
2022-08-28T02:21:00.335Z,25.68
2022-08-28T02:23:27.552Z,24.45
2022-08-28T02:25:54.379Z,25.82
2022-08-28T02:28:21.388Z,24.07
2022-08-28T02:30:48.630Z,24.94
2022-08-28T02:33:16.222Z,25.88
2022-08-28T02:35:43.222Z,25.21
2022-08-28T02:38:10.740Z,25.84
2022-08-28T02:40:38.787Z,25.91
2022-08-28T02:43:05.637Z,24.30
2022-08-28T02:45:32.869Z,25.86
2022-08-28T02:48:01.614Z,25.40
2022-08-28T02:50:30.099Z,25.29
2022-08-28T02:52:57.337Z,26.02
2022-08-28T02:55:25.252Z,24.69
2022-08-28T02:57:52.922Z,25.34
2022-08-28T03:00:24.940Z,25.63
2022-08-28T03:02:52.980Z,25.60
2022-08-28T03:05:25.455Z,25.42
2022-08-28T03:07:53.607Z,25.97
2022-08-28T03:10:20.859Z,26.44
2022-08-28T03:12:48.267Z,26.11
2022-08-28T03:15:15.069Z,26.58
2022-08-28T03:17:41.880Z,26.08
2022-08-28T03:20:10.623Z,26.11
2022-08-28T03:22:56.419Z,25.72
2022-08-28T03:25:24.712Z,25.88
2022-08-28T03:27:52.168Z,25.97
2022-08-28T03:30:20.615Z,26.43
2022-08-28T03:32:47.617Z,25.48
2022-08-28T03:35:14.740Z,26.22
2022-08-28T03:37:41.634Z,26.38
2022-08-28T03:40:09.603Z,26.24
2022-08-28T03:42:36.396Z,26.32
2022-08-28T03:45:05.349Z,26.36
2022-08-28T03:47:32.240Z,26.79
2022-08-28T03:49:59.197Z,26.76
2022-08-28T03:52:26.212Z,26.74
2022-08-28T03:54:53.037Z,26.93
2022-08-28T03:57:22.043Z,26.54
2022-08-28T03:59:51.542Z,26.51
2022-08-28T04:02:20.671Z,26.84
2022-08-28T04:04:49.417Z,27.02
2022-08-28T04:07:18.102Z,26.75
2022-08-28T04:09:45.776Z,26.88
2022-08-28T04:12:13.151Z,26.37
2022-08-28T04:14:40.107Z,26.77
2022-08-28T04:17:07.737Z,26.36
2022-08-28T04:19:34.782Z,26.75
2022-08-28T04:22:01.851Z,26.52
2022-08-28T04:24:28.747Z,26.31
2022-08-28T04:26:56.156Z,26.64
2022-08-28T04:29:23.212Z,26.86
2022-08-28T04:31:50.708Z,26.68
2022-08-28T04:34:18.218Z,26.63
2022-08-28T04:36:46.442Z,26.68
2022-08-28T04:39:13.259Z,26.86
2022-08-28T04:41:40.264Z,26.71
2022-08-28T04:44:08.093Z,26.70
2022-08-28T04:46:35.614Z,26.91
2022-08-28T04:49:04.498Z,26.64
2022-08-28T04:51:31.736Z,26.30
2022-08-28T04:53:59.077Z,26.57
2022-08-28T04:56:26.656Z,26.55
2022-08-28T04:58:53.885Z,26.20
2022-08-28T05:01:24.505Z,26.52
2022-08-28T05:03:57.641Z,26.37
2022-08-28T05:06:29.229Z,26.44
2022-08-28T05:09:00.825Z,26.77
2022-08-28T05:11:33.475Z,26.31
2022-08-28T05:14:09.628Z,26.37
2022-08-28T05:16:47.701Z,26.82
2022-08-28T05:19:16.563Z,27.20
2022-08-28T05:21:43.557Z,26.17
2022-08-28T05:24:11.509Z,26.64
2022-08-28T05:26:38.767Z,26.66
2022-08-28T05:29:07.893Z,26.43
2022-08-28T05:31:35.179Z,27.04
2022-08-28T05:34:02.348Z,26.90
2022-08-28T05:36:33.198Z,26.89
2022-08-28T05:39:01.894Z,26.09
2022-08-28T05:41:31.363Z,26.58
2022-08-28T05:44:01.254Z,26.22
2022-08-28T05:46:28.822Z,26.66
2022-08-28T05:48:56.298Z,26.33
2022-08-28T05:51:26.496Z,25.69
2022-08-28T05:53:54.374Z,26.16
2022-08-28T05:56:25.232Z,26.54
2022-08-28T05:58:52.720Z,24.38
2022-08-28T06:01:28.622Z,26.02
2022-08-28T06:04:00.323Z,26.73
2022-08-28T06:06:30.121Z,27.38
2022-08-28T06:09:10.366Z,25.89
2022-08-28T06:11:44.009Z,27.17
2022-08-28T06:14:15.723Z,26.85
2022-08-28T06:16:45.582Z,26.34
2022-08-28T06:19:13.862Z,27.16
2022-08-28T06:21:41.661Z,26.46
2022-08-28T06:24:10.199Z,26.73
2022-08-28T06:26:37.154Z,27.21
2022-08-28T06:29:09.574Z,26.82
2022-08-28T06:31:36.682Z,27.48
2022-08-28T06:34:04.353Z,26.70
2022-08-28T06:36:33.873Z,27.43
2022-08-28T06:39:02.891Z,25.83
2022-08-28T06:41:32.143Z,26.99
2022-08-28T06:43:59.019Z,27.23
2022-08-28T06:46:26.684Z,26.65
2022-08-28T06:48:53.651Z,27.59
2022-08-28T06:51:23.195Z,26.65
2022-08-28T06:53:52.366Z,25.50
2022-08-28T06:56:25.689Z,27.68
2022-08-28T06:58:56.702Z,25.50
2022-08-28T07:01:30.103Z,26.90
2022-08-28T07:04:00.372Z,26.60
2022-08-28T07:06:30.458Z,27.02
2022-08-28T07:08:57.425Z,26.81
2022-08-28T07:11:27.337Z,26.52
2022-08-28T07:13:55.367Z,27.69
2022-08-28T07:16:26.519Z,26.71
2022-08-28T07:18:53.727Z,26.56
2022-08-28T07:21:20.875Z,24.34
2022-08-28T07:23:48.400Z,27.03
2022-08-28T07:26:20.505Z,25.88
2022-08-28T07:28:47.397Z,26.65
2022-08-28T07:31:17.446Z,27.23
2022-08-28T07:33:44.421Z,28.34
2022-08-28T07:36:15.768Z,27.48
2022-08-28T07:38:46.725Z,26.46
2022-08-28T07:41:21.154Z,26.79
2022-08-28T07:44:06.367Z,27.53
2022-08-28T07:46:33.821Z,27.37
2022-08-28T07:49:01.449Z,27.96
2022-08-28T07:51:29.132Z,28.08
2022-08-28T07:53:59.992Z,27.76
2022-08-28T07:56:30.028Z,26.16
2022-08-28T07:58:58.326Z,27.92
2022-08-28T08:01:26.984Z,28.11
2022-08-28T08:03:55.927Z,28.37
2022-08-28T08:06:34.249Z,27.64
2022-08-28T08:09:02.357Z,28.03
2022-08-28T08:11:32.339Z,27.31
2022-08-28T08:14:05.604Z,27.88
2022-08-28T08:16:41.097Z,27.60
2022-08-28T08:19:10.442Z,27.79
2022-08-28T08:21:38.101Z,28.12
2022-08-28T08:24:06.087Z,27.90
2022-08-28T08:26:33.658Z,27.00
2022-08-28T08:29:01.045Z,27.76
2022-08-28T08:31:33.127Z,26.70
2022-08-28T08:34:03.693Z,26.32
2022-08-28T08:36:32.899Z,27.36
2022-08-28T08:39:00.688Z,27.21
2022-08-28T08:41:49.125Z,27.01
2022-08-28T08:44:21.851Z,27.68
2022-08-28T08:47:13.786Z,28.62
2022-08-28T08:49:53.241Z,25.45
2022-08-28T08:52:45.110Z,28.01
2022-08-28T08:55:35.586Z,27.76
2022-08-28T08:58:07.348Z,27.14
2022-08-28T09:00:40.150Z,26.82
2022-08-28T09:03:13.469Z,25.57
2022-08-28T09:05:50.574Z,27.60
2022-08-28T09:08:39.799Z,26.37
2022-08-28T09:11:31.763Z,28.50
2022-08-28T09:14:09.767Z,27.58
2022-08-28T09:16:40.818Z,28.58
2022-08-28T09:19:12.454Z,27.48
2022-08-28T09:21:41.739Z,24.35
2022-08-28T09:24:28.523Z,26.06
2022-08-28T09:27:21.469Z,25.53
2022-08-28T09:29:59.628Z,25.75
2022-08-28T09:32:46.835Z,26.45
2022-08-28T09:35:33.404Z,23.98
2022-08-28T09:38:19.956Z,24.41
2022-08-28T09:41:06.008Z,25.32
2022-08-28T09:43:34.729Z,24.84
2022-08-28T09:46:19.961Z,25.21
2022-08-28T09:48:52.335Z,25.44
2022-08-28T09:51:22.132Z,24.42
2022-08-28T09:53:51.858Z,24.67
2022-08-28T09:56:35.245Z,26.23
2022-08-28T09:59:12.533Z,24.95
2022-08-28T10:01:45.134Z,26.71
2022-08-28T10:04:24.598Z,27.25
2022-08-28T10:07:17.829Z,26.65
2022-08-28T10:10:17.866Z,26.18
2022-08-28T10:12:59.547Z,26.09
2022-08-28T10:15:51.386Z,26.90
2022-08-28T10:18:28.084Z,27.23
2022-08-28T10:21:01.254Z,26.67
2022-08-28T10:23:46.092Z,27.22
2022-08-28T10:26:20.222Z,27.49
2022-08-28T10:29:06.499Z,27.92
2022-08-28T10:31:33.459Z,27.80
2022-08-28T10:34:03.329Z,27.29
2022-08-28T10:36:34.637Z,27.21
2022-08-28T10:39:27.306Z,27.40
2022-08-28T10:42:03.261Z,27.45
2022-08-28T10:44:53.138Z,26.71
2022-08-28T10:47:22.099Z,26.26
2022-08-28T10:49:53.479Z,27.04
2022-08-28T10:52:45.191Z,27.45
2022-08-28T10:55:38.034Z,27.17
2022-08-28T10:58:23.818Z,26.31
2022-08-28T11:01:01.353Z,24.91
2022-08-28T11:03:34.697Z,26.50
2022-08-28T11:06:18.757Z,27.59
2022-08-28T11:08:53.342Z,27.30
2022-08-28T11:11:48.711Z,26.64
2022-08-28T11:14:47.545Z,25.40
2022-08-28T11:17:30.598Z,25.20
2022-08-28T11:20:15.668Z,28.05
2022-08-28T11:22:54.642Z,28.48
2022-08-28T11:25:45.399Z,27.86
2022-08-28T11:28:25.780Z,26.56
2022-08-28T11:30:58.733Z,27.27
2022-08-28T11:33:34.424Z,26.46
2022-08-28T11:36:01.986Z,24.91
2022-08-28T11:39:03.357Z,27.59
2022-08-28T11:41:36.525Z,26.72
2022-08-28T11:44:09.322Z,28.01
2022-08-28T11:46:44.228Z,27.62
2022-08-28T11:49:26.449Z,26.98
2022-08-28T11:52:15.127Z,27.81
2022-08-28T11:55:52.815Z,24.74
2022-08-28T11:58:31.601Z,27.33
2022-08-28T12:01:21.213Z,26.96
2022-08-28T12:04:03.838Z,27.14
2022-08-28T12:06:49.823Z,25.92
2022-08-28T12:09:25.758Z,28.21
2022-08-28T12:11:56.314Z,28.86
2022-08-28T12:14:25.902Z,27.98
2022-08-28T12:16:58.752Z,27.78
2022-08-28T12:20:00.177Z,27.22
2022-08-28T12:22:52.985Z,27.57
2022-08-28T12:25:25.248Z,23.95
2022-08-28T12:27:53.936Z,25.17
2022-08-28T12:30:38.150Z,27.41
2022-08-28T12:33:16.729Z,26.44
2022-08-28T12:35:44.015Z,27.54
2022-08-28T12:38:20.393Z,27.10
2022-08-28T12:40:53.376Z,26.80
2022-08-28T12:43:48.609Z,27.19
2022-08-28T12:46:26.185Z,26.00
2022-08-28T12:49:03.111Z,26.55
2022-08-28T12:51:36.780Z,29.10
2022-08-28T12:54:07.358Z,28.22
2022-08-28T12:56:37.472Z,28.22
2022-08-28T12:59:34.675Z,29.06
2022-08-28T13:02:08.192Z,27.59
2022-08-28T13:04:39.432Z,27.23
2022-08-28T13:07:11.058Z,27.49
2022-08-28T13:09:45.063Z,25.87
2022-08-28T13:12:54.693Z,26.11
2022-08-28T13:15:43.872Z,27.71
2022-08-28T13:18:11.269Z,25.13
2022-08-28T13:20:39.601Z,25.72
2022-08-28T13:23:06.763Z,24.73
2022-08-28T13:25:36.815Z,25.35
2022-08-28T13:28:15.512Z,27.61
2022-08-28T13:30:42.346Z,27.91
2022-08-28T13:33:24.395Z,27.59
2022-08-28T13:35:52.574Z,28.57
2022-08-28T13:38:22.017Z,27.77
2022-08-28T13:40:59.353Z,27.52
2022-08-28T13:43:29.739Z,28.67
2022-08-28T13:45:56.664Z,28.22
2022-08-28T13:48:27.846Z,28.25
2022-08-28T13:51:10.507Z,26.71
2022-08-28T13:53:38.657Z,27.35
2022-08-28T13:56:06.482Z,26.89
2022-08-28T13:58:33.429Z,27.95
2022-08-28T14:01:01.029Z,27.16
2022-08-28T14:03:38.380Z,28.09
2022-08-28T14:06:14.124Z,29.09
2022-08-28T14:08:42.286Z,25.55
2022-08-28T14:11:12.539Z,27.57
2022-08-28T14:13:47.161Z,27.62
2022-08-28T14:16:24.644Z,28.00
2022-08-28T14:18:52.830Z,26.91
2022-08-28T14:21:21.006Z,22.82
2022-08-28T14:23:47.759Z,25.78
2022-08-28T14:26:14.566Z,25.69
2022-08-28T14:28:42.413Z,27.15
2022-08-28T14:31:14.203Z,24.83
2022-08-28T14:33:41.788Z,26.59
2022-08-28T14:36:18.328Z,25.46
2022-08-28T14:38:45.163Z,25.42
2022-08-28T14:41:12.508Z,26.87
2022-08-28T14:43:39.327Z,26.68
2022-08-28T14:46:10.986Z,26.63
2022-08-28T14:48:38.694Z,28.16
2022-08-28T14:51:06.073Z,26.03
2022-08-28T14:53:32.843Z,28.91
2022-08-28T14:55:59.678Z,26.26
2022-08-28T14:58:26.851Z,26.57
2022-08-28T15:00:53.894Z,28.72
2022-08-28T15:03:21.767Z,29.01
2022-08-28T15:06:00.354Z,27.77
2022-08-28T15:08:27.628Z,28.93
2022-08-28T15:10:54.926Z,28.24
2022-08-28T15:13:21.880Z,28.52
2022-08-28T15:15:49.878Z,28.44
2022-08-28T15:18:16.883Z,29.36
2022-08-28T15:20:46.607Z,29.03
2022-08-28T15:23:14.999Z,30.10
2022-08-28T15:25:42.407Z,25.73
2022-08-28T15:28:10.075Z,28.99
2022-08-28T15:30:37.239Z,27.98
2022-08-28T15:33:04.920Z,27.90
2022-08-28T15:35:33.766Z,28.57
2022-08-28T15:38:00.679Z,28.23
2022-08-28T15:40:46.257Z,29.30
2022-08-28T15:43:13.509Z,28.43
2022-08-28T15:45:40.994Z,25.83
2022-08-28T15:48:09.248Z,28.94
2022-08-28T15:50:36.570Z,29.76
2022-08-28T15:53:04.474Z,29.11
2022-08-28T15:55:34.117Z,27.30
2022-08-28T15:58:08.862Z,28.01
2022-08-28T16:00:41.618Z,29.61
2022-08-28T16:03:08.587Z,30.77
2022-08-28T16:05:40.546Z,28.33
2022-08-28T16:08:09.385Z,30.34
2022-08-28T16:10:36.741Z,27.07
2022-08-28T16:13:06.559Z,28.38
2022-08-28T16:15:34.586Z,26.97
2022-08-28T16:18:01.634Z,27.23
2022-08-28T16:20:29.003Z,28.24
2022-08-28T16:22:55.799Z,28.95
2022-08-28T16:25:22.555Z,30.16
2022-08-28T16:27:49.338Z,29.90
2022-08-28T16:30:17.643Z,29.71
2022-08-28T16:32:46.696Z,27.78
2022-08-28T16:35:15.101Z,27.81
2022-08-28T16:37:42.573Z,28.94
2022-08-28T16:40:10.654Z,29.38
2022-08-28T16:42:37.621Z,29.60
2022-08-28T16:45:05.351Z,29.24
2022-08-28T16:47:33.915Z,29.32
2022-08-28T16:50:02.283Z,28.58
2022-08-28T16:52:29.129Z,29.36
2022-08-28T16:54:55.988Z,30.54
2022-08-28T16:57:23.769Z,29.82
2022-08-28T16:59:53.069Z,28.72
2022-08-28T17:02:26.515Z,28.81
2022-08-28T17:04:55.692Z,29.34
2022-08-28T17:07:22.926Z,29.50
2022-08-28T17:09:49.790Z,28.92
2022-08-28T17:12:16.811Z,29.01
2022-08-28T17:14:43.981Z,29.85
2022-08-28T17:17:11.498Z,29.34
2022-08-28T17:19:38.515Z,28.78
2022-08-28T17:22:27.094Z,28.96
2022-08-28T17:24:55.097Z,28.71
2022-08-28T17:27:22.883Z,29.13
2022-08-28T17:29:50.582Z,29.20
2022-08-28T17:32:17.846Z,29.42
2022-08-28T17:34:44.999Z,29.98
2022-08-28T17:37:12.093Z,28.30
2022-08-28T17:39:39.062Z,28.04
2022-08-28T17:42:06.262Z,28.41
2022-08-28T17:44:35.349Z,29.07
2022-08-28T17:47:02.671Z,28.90
2022-08-28T17:49:29.745Z,28.41
2022-08-28T17:51:56.657Z,29.11
2022-08-28T17:54:24.462Z,29.08
2022-08-28T17:56:55.227Z,29.09
2022-08-28T17:59:23.647Z,28.96
2022-08-28T18:01:50.813Z,28.77
2022-08-28T18:04:24.200Z,28.38
2022-08-28T18:06:54.741Z,28.24
2022-08-28T18:09:23.479Z,27.94
2022-08-28T18:11:51.347Z,27.94
2022-08-28T18:14:18.525Z,28.06
2022-08-28T18:16:45.327Z,26.32
2022-08-28T18:19:13.680Z,27.94
2022-08-28T18:21:41.183Z,27.57
2022-08-28T18:24:08.632Z,27.70
2022-08-28T18:26:35.396Z,28.01
2022-08-28T18:29:02.360Z,28.58
2022-08-28T18:31:29.439Z,27.54
2022-08-28T18:33:57.014Z,28.07
2022-08-28T18:36:24.363Z,26.95
2022-08-28T18:38:52.430Z,27.65
2022-08-28T18:41:20.514Z,27.18
2022-08-28T18:43:48.331Z,27.07
2022-08-28T18:46:15.800Z,28.03
2022-08-28T18:48:43.417Z,27.16
2022-08-28T18:51:12.435Z,27.25
2022-08-28T18:53:42.376Z,24.55
2022-08-28T18:56:12.462Z,26.64
2022-08-28T18:58:40.995Z,26.19
2022-08-28T19:01:09.845Z,26.60
2022-08-28T19:03:37.143Z,27.20
2022-08-28T19:06:06.418Z,26.68
2022-08-28T19:08:36.713Z,25.82
2022-08-28T19:11:07.990Z,26.92
2022-08-28T19:13:35.779Z,26.23
2022-08-28T19:16:03.329Z,25.42
2022-08-28T19:18:30.441Z,25.19
2022-08-28T19:21:05.034Z,26.05
2022-08-28T19:23:33.108Z,25.97
2022-08-28T19:26:00.323Z,25.65
2022-08-28T19:28:27.271Z,25.69
2022-08-28T19:30:54.599Z,26.24
2022-08-28T19:33:21.605Z,25.99
2022-08-28T19:35:48.958Z,26.19
2022-08-28T19:38:16.894Z,26.31
2022-08-28T19:40:44.545Z,26.26
2022-08-28T19:43:16.496Z,25.33
2022-08-28T19:45:45.320Z,25.17
2022-08-28T19:48:12.649Z,25.06
2022-08-28T19:50:39.723Z,25.03
2022-08-28T19:53:07.214Z,26.04
2022-08-28T19:55:34.630Z,24.90
2022-08-28T19:58:05.288Z,25.52
2022-08-28T20:00:33.249Z,25.25
2022-08-28T20:03:00.863Z,25.35
2022-08-28T20:05:28.164Z,24.82
2022-08-28T20:07:55.442Z,24.74
2022-08-28T20:10:22.416Z,25.31
2022-08-28T20:12:49.553Z,25.36
2022-08-28T20:15:18.241Z,25.48
2022-08-28T20:17:49.726Z,23.95
2022-08-28T20:20:19.608Z,23.58
2022-08-28T20:22:46.698Z,24.57
2022-08-28T20:25:14.787Z,24.60
2022-08-28T20:27:41.756Z,24.33
2022-08-28T20:30:10.436Z,24.58
2022-08-28T20:32:40.125Z,24.77
2022-08-28T20:35:09.691Z,23.89
2022-08-28T20:37:44.650Z,24.59
2022-08-28T20:40:18.318Z,24.16
2022-08-28T20:42:46.509Z,24.36
2022-08-28T20:45:15.231Z,23.93
2022-08-28T20:47:42.578Z,24.29
2022-08-28T20:50:09.648Z,24.73
2022-08-28T20:52:37.087Z,24.13
2022-08-28T20:55:05.834Z,23.71
2022-08-28T20:57:32.815Z,24.24
2022-08-28T21:00:03.483Z,22.72
2022-08-28T21:02:32.406Z,23.32
2022-08-28T21:04:59.285Z,24.05
2022-08-28T21:07:27.083Z,23.70
2022-08-28T21:10:04.944Z,24.03
2022-08-28T21:12:33.624Z,23.85
2022-08-28T21:15:00.449Z,24.00
2022-08-28T21:17:30.145Z,22.94
2022-08-28T21:20:04.262Z,22.23
2022-08-28T21:22:32.926Z,23.58
2022-08-28T21:25:00.749Z,23.49
2022-08-28T21:27:28.477Z,23.80
2022-08-28T21:29:57.695Z,23.09
2022-08-28T21:32:25.295Z,22.94
2022-08-28T21:34:53.275Z,21.03
2022-08-28T21:37:20.225Z,23.01
2022-08-28T21:39:47.090Z,22.45
2022-08-28T21:42:13.959Z,23.10
2022-08-28T21:44:41.013Z,23.82
2022-08-28T21:47:15.746Z,24.21
2022-08-28T21:49:42.815Z,23.64
2022-08-28T21:52:09.582Z,23.18
2022-08-28T21:54:36.971Z,24.13
2022-08-28T21:57:04.081Z,22.39
2022-08-28T21:59:37.864Z,23.07
2022-08-28T22:02:05.388Z,22.73
2022-08-28T22:04:32.562Z,22.93
2022-08-28T22:06:59.555Z,22.78
2022-08-28T22:09:26.469Z,23.55
2022-08-28T22:11:54.028Z,22.33
2022-08-28T22:14:21.124Z,22.85
2022-08-28T22:16:48.092Z,23.34
2022-08-28T22:19:14.948Z,22.38
2022-08-28T22:22:00.687Z,23.19
2022-08-28T22:24:27.744Z,23.26
2022-08-28T22:26:57.731Z,22.03
2022-08-28T22:29:25.069Z,22.61
2022-08-28T22:31:53.098Z,23.30
2022-08-28T22:34:20.380Z,22.46
2022-08-28T22:36:47.217Z,23.12
2022-08-28T22:39:14.191Z,22.94
2022-08-28T22:41:41.715Z,23.36
2022-08-28T22:44:09.075Z,22.33
2022-08-28T22:46:36.089Z,23.18
2022-08-28T22:49:03.314Z,22.48
2022-08-28T22:51:30.093Z,22.81
2022-08-28T22:53:57.143Z,22.59
2022-08-28T22:56:23.984Z,22.13
2022-08-28T22:58:51.105Z,23.01
2022-08-28T23:01:22.663Z,23.04
2022-08-28T23:03:50.544Z,22.72
2022-08-28T23:06:17.830Z,22.29
2022-08-28T23:08:44.585Z,22.99
2022-08-28T23:11:11.702Z,21.87
2022-08-28T23:13:39.331Z,23.16
2022-08-28T23:16:06.284Z,23.17
2022-08-28T23:19:03.976Z,23.32
2022-08-28T23:21:23.851Z,22.11
2022-08-28T23:23:53.818Z,22.62
2022-08-28T23:26:21.594Z,22.68
2022-08-28T23:28:48.406Z,22.19
2022-08-28T23:31:15.339Z,22.45
2022-08-28T23:33:42.584Z,22.88
2022-08-28T23:36:10.211Z,22.88
2022-08-28T23:38:40.664Z,22.58
2022-08-28T23:41:11.259Z,21.98
2022-08-28T23:43:38.685Z,22.46
2022-08-28T23:46:06.121Z,22.92
2022-08-28T23:48:33.099Z,22.43
2022-08-28T23:51:00.101Z,21.58
2022-08-28T23:53:27.630Z,21.22
2022-08-28T23:55:55.921Z,21.92
2022-08-28T23:58:22.748Z,21.83
